Time;durP1;ratioP1;P1;durP2;ratioP2;P2;SDS_P1;SDS_P2;PMS_P1;PMS_P2;Temp;Humidity;BMP_temperature;BMP_pressure;BME280_temperature;BME280_humidity;BME280_pressure;Samples;Min_cycle;Max_cycle;Signal;HPM_P1;HPM_P2
2023/12/03 00:00:08;;;;;;;10.85;6.97;;;;;;;;;;5003936;28;20053;-80
2023/12/03 00:02:38;;;;;;;12.63;6.93;;;;;;;;;;4983543;28;20046;-80
2023/12/03 00:05:04;;;;;;;10.60;7.40;;;;;;;;;;4989118;28;20042;-80
2023/12/03 00:07:31;;;;;;;11.63;7.22;;;;;;;;;;4970348;28;20077;-79
2023/12/03 00:09:57;;;;;;;15.18;7.68;;;;;;;;;;4986644;28;20129;-79
2023/12/03 00:12:23;;;;;;;13.32;7.90;;;;;;;;;;4970369;28;20038;-80
2023/12/03 00:14:50;;;;;;;8.68;6.72;;;;;;;;;;4972101;28;20038;-79
2023/12/03 00:17:16;;;;;;;11.45;6.65;;;;;;;;;;4967877;28;20112;-80
2023/12/03 00:19:43;;;;;;;9.63;6.55;;;;;;;;;;4988050;28;20097;-80
2023/12/03 00:22:09;;;;;;;10.93;6.93;;;;;;;;;;4971480;28;20398;-79
2023/12/03 00:24:35;;;;;;;11.27;7.45;;;;;;;;;;4970384;28;20124;-78
2023/12/03 00:27:02;;;;;;;13.10;7.55;;;;;;;;;;4975431;28;20519;-79
2023/12/03 00:29:28;;;;;;;9.48;7.05;;;;;;;;;;4986805;28;20137;-80
2023/12/03 00:31:55;;;;;;;8.52;6.53;;;;;;;;;;4971430;28;20046;-80
2023/12/03 00:34:21;;;;;;;10.23;7.30;;;;;;;;;;4981957;28;20042;-80
2023/12/03 00:36:51;;;;;;;11.07;7.43;;;;;;;;;;4987945;28;20100;-80
2023/12/03 00:39:17;;;;;;;14.52;7.97;;;;;;;;;;4969018;28;20097;-80
2023/12/03 00:41:43;;;;;;;13.00;7.70;;;;;;;;;;4971385;28;20042;-81
2023/12/03 00:44:09;;;;;;;14.32;8.10;;;;;;;;;;4981075;28;20049;-80
2023/12/03 00:46:35;;;;;;;10.85;7.65;;;;;;;;;;4984667;28;20042;-80
2023/12/03 00:49:01;;;;;;;14.82;7.60;;;;;;;;;;4953097;28;20050;-81
2023/12/03 00:51:28;;;;;;;12.38;7.63;;;;;;;;;;4981112;28;20396;-80
2023/12/03 00:53:54;;;;;;;14.50;8.10;;;;;;;;;;4954832;28;20486;-81
2023/12/03 00:56:20;;;;;;;11.80;7.88;;;;;;;;;;4987985;28;20064;-81
2023/12/03 00:58:46;;;;;;;13.90;8.60;;;;;;;;;;4972236;28;20136;-79
2023/12/03 01:01:12;;;;;;;14.20;8.35;;;;;;;;;;4998968;28;20406;-78
2023/12/03 01:03:38;;;;;;;15.05;8.27;;;;;;;;;;4985126;28;20046;-79
2023/12/03 01:06:04;;;;;;;15.98;9.52;;;;;;;;;;4987217;28;20141;-80
2023/12/03 01:08:30;;;;;;;12.90;8.70;;;;;;;;;;4956181;28;20415;-79
2023/12/03 01:10:56;;;;;;;13.70;8.70;;;;;;;;;;4969512;28;20406;-79
2023/12/03 01:13:22;;;;;;;13.88;8.75;;;;;;;;;;4982978;28;20553;-80
2023/12/03 01:15:49;;;;;;;11.48;7.78;;;;;;;;;;4969851;28;20053;-80
2023/12/03 01:18:16;;;;;;;12.90;7.78;;;;;;;;;;4968603;28;20409;-79
2023/12/03 01:20:42;;;;;;;15.88;7.75;;;;;;;;;;4967577;28;20042;-79
2023/12/03 01:23:08;;;;;;;13.30;7.57;;;;;;;;;;5003038;28;20385;-79
2023/12/03 01:25:34;;;;;;;11.63;7.05;;;;;;;;;;4969073;28;20046;-79
2023/12/03 01:28:00;;;;;;;11.60;7.63;;;;;;;;;;4967678;28;20569;-78
2023/12/03 01:30:26;;;;;;;14.18;8.77;;;;;;;;;;4970617;28;20073;-78
2023/12/03 01:32:52;;;;;;;11.80;8.32;;;;;;;;;;4970230;28;20379;-79
2023/12/03 01:35:18;;;;;;;11.65;8.50;;;;;;;;;;5003379;28;20060;-81
2023/12/03 01:37:44;;;;;;;12.20;7.63;;;;;;;;;;4965831;28;20046;-79
2023/12/03 01:40:10;;;;;;;13.88;8.70;;;;;;;;;;5002242;28;20128;-79
2023/12/03 01:42:36;;;;;;;11.93;8.02;;;;;;;;;;4985410;28;20052;-78
2023/12/03 01:45:03;;;;;;;14.57;9.45;;;;;;;;;;4953669;28;20065;-78
2023/12/03 01:47:31;;;;;;;13.90;8.75;;;;;;;;;;4985333;28;20113;-79
2023/12/03 01:50:02;;;;;;;16.38;9.40;;;;;;;;;;4954070;28;20088;-79
2023/12/03 01:52:28;;;;;;;14.00;8.30;;;;;;;;;;4969013;28;20050;-80
2023/12/03 01:54:55;;;;;;;14.63;8.10;;;;;;;;;;4971046;28;20070;-79
2023/12/03 01:57:21;;;;;;;14.57;9.43;;;;;;;;;;4972340;28;20379;-79
2023/12/03 01:59:47;;;;;;;13.63;8.35;;;;;;;;;;4975857;28;20076;-79
2023/12/03 02:02:13;;;;;;;12.60;8.65;;;;;;;;;;4984369;28;20459;-79
2023/12/03 02:04:39;;;;;;;12.88;7.55;;;;;;;;;;4968406;28;20458;-79
2023/12/03 02:07:05;;;;;;;14.20;9.18;;;;;;;;;;4985851;28;20442;-78
2023/12/03 02:09:31;;;;;;;15.25;9.15;;;;;;;;;;4963831;28;20046;-83
2023/12/03 02:11:57;;;;;;;12.65;7.63;;;;;;;;;;4966743;28;20153;-82
2023/12/03 02:14:24;;;;;;;13.55;8.02;;;;;;;;;;4978776;28;20061;-81
2023/12/03 02:16:50;;;;;;;14.65;8.25;;;;;;;;;;4968207;28;20076;-83
2023/12/03 02:19:16;;;;;;;10.40;7.90;;;;;;;;;;4970583;28;20050;-83
2023/12/03 02:21:42;;;;;;;12.80;8.90;;;;;;;;;;4956138;28;20161;-82
2023/12/03 02:24:08;;;;;;;14.98;8.75;;;;;;;;;;4984718;28;20034;-83
2023/12/03 02:26:34;;;;;;;14.00;9.10;;;;;;;;;;4969980;28;20084;-82
2023/12/03 02:29:01;;;;;;;15.48;9.18;;;;;;;;;;4972692;28;20050;-83
2023/12/03 02:31:30;;;;;;;17.48;8.48;;;;;;;;;;5001360;28;20701;-83
2023/12/03 02:34:08;;;;;;;12.27;8.52;;;;;;;;;;4968610;28;20053;-82
2023/12/03 02:36:34;;;;;;;15.70;9.85;;;;;;;;;;4967782;28;20050;-83
2023/12/03 02:39:00;;;;;;;21.88;9.05;;;;;;;;;;4982352;28;20498;-83
2023/12/03 02:41:26;;;;;;;30.50;8.93;;;;;;;;;;4985248;28;20039;-84
2023/12/03 02:43:52;;;;;;;21.77;8.32;;;;;;;;;;4984653;28;20056;-83
2023/12/03 02:46:18;;;;;;;16.55;9.10;;;;;;;;;;4969190;28;20065;-83
2023/12/03 02:48:46;;;;;;;12.80;8.75;;;;;;;;;;4970656;28;20416;-83
2023/12/03 02:51:13;;;;;;;13.93;8.70;;;;;;;;;;4974741;28;20147;-83
2023/12/03 02:53:40;;;;;;;18.80;8.77;;;;;;;;;;4988155;28;20093;-82
2023/12/03 02:56:06;;;;;;;15.10;9.10;;;;;;;;;;4975669;28;20041;-84
2023/12/03 02:58:32;;;;;;;15.68;8.98;;;;;;;;;;5003613;28;20129;-83
2023/12/03 03:00:58;;;;;;;16.40;9.68;;;;;;;;;;4973243;28;20074;-83
2023/12/03 03:03:24;;;;;;;14.70;8.77;;;;;;;;;;4990717;28;20042;-83
2023/12/03 03:05:51;;;;;;;227.05;13.48;;;;;;;;;;4979415;28;20073;-83
2023/12/03 03:08:17;;;;;;;106.22;10.77;;;;;;;;;;4974347;28;20038;-83
2023/12/03 03:10:43;;;;;;;42.83;10.27;;;;;;;;;;4972517;28;20052;-81
2023/12/03 03:13:09;;;;;;;272.30;17.52;;;;;;;;;;4972207;28;20069;-82
2023/12/03 03:15:36;;;;;;;381.85;20.85;;;;;;;;;;5003123;28;20042;-81
2023/12/03 03:18:02;;;;;;;363.30;22.02;;;;;;;;;;4957338;28;20569;-82
2023/12/03 03:20:30;;;;;;;218.27;13.35;;;;;;;;;;4974286;28;20144;-82
2023/12/03 03:22:56;;;;;;;291.63;16.95;;;;;;;;;;5004419;28;20042;-81
2023/12/03 03:25:22;;;;;;;119.38;11.85;;;;;;;;;;5002749;28;20050;-80
2023/12/03 03:27:48;;;;;;;478.30;22.23;;;;;;;;;;4976745;28;20068;-82
2023/12/03 03:30:15;;;;;;;410.30;22.02;;;;;;;;;;4971934;28;20995;-82
2023/12/03 03:32:42;;;;;;;312.40;21.45;;;;;;;;;;4987444;28;20510;-82
2023/12/03 03:35:08;;;;;;;188.52;17.15;;;;;;;;;;4972669;28;20049;-82
2023/12/03 03:37:35;;;;;;;105.95;14.65;;;;;;;;;;4970602;28;20038;-82
2023/12/03 03:40:02;;;;;;;146.85;15.90;;;;;;;;;;5005688;28;20086;-79
2023/12/03 03:42:29;;;;;;;94.40;14.30;;;;;;;;;;4970766;28;20046;-78
2023/12/03 03:44:55;;;;;;;74.32;14.45;;;;;;;;;;5003697;28;20390;-79
2023/12/03 03:47:22;;;;;;;41.63;15.55;;;;;;;;;;4956672;28;20078;-79
2023/12/03 03:49:48;;;;;;;44.67;15.95;;;;;;;;;;4970345;28;20042;-80
2023/12/03 03:52:14;;;;;;;81.45;16.10;;;;;;;;;;4953378;28;20047;-81
2023/12/03 03:54:43;;;;;;;38.75;13.13;;;;;;;;;;5003495;28;20038;-81
2023/12/03 03:57:09;;;;;;;81.28;15.20;;;;;;;;;;5003587;28;20133;-81
2023/12/03 03:59:35;;;;;;;101.10;15.13;;;;;;;;;;4985814;28;20052;-79
2023/12/03 04:02:01;;;;;;;243.20;19.90;;;;;;;;;;5004811;28;20062;-81
2023/12/03 04:04:27;;;;;;;274.05;17.70;;;;;;;;;;5003494;28;20035;-81
2023/12/03 04:06:53;;;;;;;340.30;22.95;;;;;;;;;;4956921;28;20042;-81
2023/12/03 04:09:19;;;;;;;448.92;23.88;;;;;;;;;;4987535;28;20053;-81
2023/12/03 04:11:47;;;;;;;483.92;24.10;;;;;;;;;;4956384;28;20046;-80
2023/12/03 04:14:17;;;;;;;325.23;20.17;;;;;;;;;;5004685;28;20046;-80
2023/12/03 04:16:45;;;;;;;492.48;25.02;;;;;;;;;;4971790;28;20415;-80
2023/12/03 04:19:13;;;;;;;433.70;33.20;;;;;;;;;;5005477;28;20132;-80
2023/12/03 04:21:39;;;;;;;487.58;28.73;;;;;;;;;;4987247;28;20049;-78
2023/12/03 04:24:05;;;;;;;476.50;28.35;;;;;;;;;;5004332;28;20422;-78
2023/12/03 04:26:32;;;;;;;299.13;24.08;;;;;;;;;;4967720;28;20505;-78
2023/12/03 04:28:58;;;;;;;174.32;19.45;;;;;;;;;;4986125;28;20070;-78
2023/12/03 04:31:27;;;;;;;169.82;19.50;;;;;;;;;;4988772;28;20038;-79
2023/12/03 04:33:54;;;;;;;340.48;28.70;;;;;;;;;;5001681;28;20038;-78
2023/12/03 04:36:24;;;;;;;307.85;24.95;;;;;;;;;;5003185;28;20046;-78
2023/12/03 04:38:51;;;;;;;298.35;26.67;;;;;;;;;;4972699;28;20045;-79
2023/12/03 04:41:17;;;;;;;203.10;22.45;;;;;;;;;;5002984;28;20090;-78
2023/12/03 04:43:43;;;;;;;261.20;25.92;;;;;;;;;;5003101;28;20038;-78
2023/12/03 04:46:09;;;;;;;282.83;24.17;;;;;;;;;;4971180;28;20040;-77
2023/12/03 04:48:36;;;;;;;337.40;25.27;;;;;;;;;;4953400;28;20038;-77
2023/12/03 04:51:03;;;;;;;275.42;25.25;;;;;;;;;;4975297;28;20406;-78
2023/12/03 04:53:29;;;;;;;262.98;25.63;;;;;;;;;;4953954;28;20046;-78
2023/12/03 04:55:55;;;;;;;227.25;25.75;;;;;;;;;;4970664;28;20061;-78
2023/12/03 04:58:21;;;;;;;104.65;18.67;;;;;;;;;;4973037;28;20042;-78
2023/12/03 05:00:48;;;;;;;247.27;25.55;;;;;;;;;;4973915;28;20042;-77
2023/12/03 05:03:14;;;;;;;220.48;23.95;;;;;;;;;;4984140;28;20066;-77
2023/12/03 05:05:40;;;;;;;396.27;35.25;;;;;;;;;;4978646;28;20043;-78
2023/12/03 05:08:06;;;;;;;296.63;29.38;;;;;;;;;;4966964;28;20673;-80
2023/12/03 05:10:32;;;;;;;301.20;27.55;;;;;;;;;;4950465;28;20038;-80
2023/12/03 05:12:58;;;;;;;167.05;22.10;;;;;;;;;;4971661;28;20138;-79
2023/12/03 05:15:24;;;;;;;193.35;21.55;;;;;;;;;;5002576;28;20034;-79
2023/12/03 05:17:50;;;;;;;179.30;23.40;;;;;;;;;;4988743;28;20035;-79
2023/12/03 05:20:16;;;;;;;247.52;26.38;;;;;;;;;;4972067;28;20038;-78
2023/12/03 05:22:43;;;;;;;221.63;25.52;;;;;;;;;;4984667;28;20050;-78
2023/12/03 05:25:10;;;;;;;198.23;23.83;;;;;;;;;;4971123;28;20042;-78
2023/12/03 05:27:37;;;;;;;225.85;25.05;;;;;;;;;;4971014;28;20158;-79
2023/12/03 05:30:04;;;;;;;246.63;24.33;;;;;;;;;;4973351;28;20486;-79
2023/12/03 05:32:31;;;;;;;248.73;25.00;;;;;;;;;;4972290;28;20042;-79
2023/12/03 05:34:57;;;;;;;371.73;28.83;;;;;;;;;;5002441;28;20100;-79
2023/12/03 05:37:23;;;;;;;398.98;30.15;;;;;;;;;;5004277;28;20046;-79
2023/12/03 05:39:49;;;;;;;201.82;27.08;;;;;;;;;;4999090;28;20142;-79
2023/12/03 05:42:15;;;;;;;240.27;24.02;;;;;;;;;;4997318;28;20038;-83
2023/12/03 05:44:41;;;;;;;255.80;25.67;;;;;;;;;;4973466;28;20034;-82
2023/12/03 05:47:07;;;;;;;183.25;27.27;;;;;;;;;;4972846;28;20104;-83
2023/12/03 05:49:33;;;;;;;203.55;21.75;;;;;;;;;;4972789;28;20038;-83
2023/12/03 05:51:59;;;;;;;175.30;22.13;;;;;;;;;;4966698;28;20117;-83
2023/12/03 05:54:25;;;;;;;126.55;18.45;;;;;;;;;;4971947;28;20076;-82
2023/12/03 05:56:51;;;;;;;158.15;21.30;;;;;;;;;;5002332;28;20053;-83
2023/12/03 05:59:17;;;;;;;179.70;22.58;;;;;;;;;;5003512;28;20038;-83
2023/12/03 06:01:44;;;;;;;218.68;27.65;;;;;;;;;;4971780;28;20041;-83
2023/12/03 06:04:10;;;;;;;364.55;29.25;;;;;;;;;;4973525;28;20574;-82
2023/12/03 06:06:37;;;;;;;183.35;22.63;;;;;;;;;;4967479;28;20390;-82
2023/12/03 06:09:04;;;;;;;224.63;27.23;;;;;;;;;;4972974;28;20501;-82
2023/12/03 06:11:35;;;;;;;373.90;33.42;;;;;;;;;;4971422;28;20045;-83
2023/12/03 06:14:01;;;;;;;256.50;25.17;;;;;;;;;;4964950;28;20508;-83
2023/12/03 06:16:27;;;;;;;480.13;34.88;;;;;;;;;;4979459;28;20069;-84
2023/12/03 06:18:53;;;;;;;367.67;31.92;;;;;;;;;;4982691;28;20038;-83
2023/12/03 06:21:19;;;;;;;174.82;24.63;;;;;;;;;;4966493;28;20092;-82
2023/12/03 06:23:47;;;;;;;123.90;23.35;;;;;;;;;;4988252;28;20042;-83
2023/12/03 06:26:13;;;;;;;109.47;20.92;;;;;;;;;;4968399;28;20442;-82
2023/12/03 06:28:40;;;;;;;142.45;22.40;;;;;;;;;;4985724;28;20034;-82
2023/12/03 06:31:07;;;;;;;114.57;20.30;;;;;;;;;;4972231;28;20042;-82
2023/12/03 06:33:33;;;;;;;202.43;26.85;;;;;;;;;;4996768;28;20053;-82
2023/12/03 06:35:59;;;;;;;182.27;26.13;;;;;;;;;;4998858;28;20097;-82
2023/12/03 06:38:25;;;;;;;191.40;27.48;;;;;;;;;;4970668;28;20058;-82
2023/12/03 06:40:51;;;;;;;126.28;22.52;;;;;;;;;;4982624;28;20051;-78
2023/12/03 06:43:18;;;;;;;101.32;25.35;;;;;;;;;;4984935;28;20112;-79
2023/12/03 06:45:44;;;;;;;147.07;30.33;;;;;;;;;;4978802;28;20042;-78
2023/12/03 06:48:10;;;;;;;306.27;36.50;;;;;;;;;;4984539;28;20046;-78
2023/12/03 06:50:37;;;;;;;215.85;32.28;;;;;;;;;;4969862;28;20047;-83
2023/12/03 06:53:04;;;;;;;246.15;34.30;;;;;;;;;;4969251;28;20490;-83
2023/12/03 06:55:30;;;;;;;294.83;37.63;;;;;;;;;;4969805;28;20085;-85
2023/12/03 06:57:56;;;;;;;336.38;38.83;;;;;;;;;;4987532;28;20042;-85
2023/12/03 07:00:25;;;;;;;253.55;38.35;;;;;;;;;;4970097;28;20057;-84
2023/12/03 07:02:54;;;;;;;424.63;44.97;;;;;;;;;;4967813;28;20079;-84
2023/12/03 07:05:20;;;;;;;505.77;45.65;;;;;;;;;;4974479;28;20038;-84
2023/12/03 07:07:51;;;;;;;254.07;39.17;;;;;;;;;;4956276;28;20146;-83
2023/12/03 07:10:17;;;;;;;320.73;37.97;;;;;;;;;;4984512;28;20519;-83
2023/12/03 07:12:43;;;;;;;352.40;42.58;;;;;;;;;;4953888;28;20057;-82
2023/12/03 07:15:09;;;;;;;309.30;39.08;;;;;;;;;;4970522;28;20041;-84
2023/12/03 07:17:35;;;;;;;366.42;43.42;;;;;;;;;;4981886;28;20066;-83
2023/12/03 07:20:01;;;;;;;403.88;42.50;;;;;;;;;;4965808;28;20105;-84
2023/12/03 07:22:27;;;;;;;328.45;43.22;;;;;;;;;;4968702;28;20069;-83
2023/12/03 07:24:54;;;;;;;388.60;48.30;;;;;;;;;;4997097;28;20038;-83
2023/12/03 07:27:20;;;;;;;441.90;47.58;;;;;;;;;;4984270;28;20107;-83
2023/12/03 07:29:46;;;;;;;427.48;47.75;;;;;;;;;;4964276;28;20548;-83
2023/12/03 07:32:12;;;;;;;530.15;54.17;;;;;;;;;;4968547;28;20085;-84
2023/12/03 07:34:39;;;;;;;275.80;46.28;;;;;;;;;;4968380;28;20046;-83
2023/12/03 07:37:05;;;;;;;475.55;52.80;;;;;;;;;;4972513;28;20053;-83
2023/12/03 07:39:32;;;;;;;402.80;48.30;;;;;;;;;;4974673;28;20558;-82
2023/12/03 07:41:58;;;;;;;452.08;51.03;;;;;;;;;;4972296;28;20057;-83
2023/12/03 07:44:24;;;;;;;566.97;54.40;;;;;;;;;;4975780;28;20494;-83
2023/12/03 07:46:53;;;;;;;414.83;48.78;;;;;;;;;;4973679;28;20070;-83
2023/12/03 07:49:20;;;;;;;446.42;51.83;;;;;;;;;;4989594;28;20042;-83
2023/12/03 07:51:47;;;;;;;522.10;55.42;;;;;;;;;;4973935;28;20140;-80
2023/12/03 07:54:13;;;;;;;350.50;46.13;;;;;;;;;;4990465;28;20112;-80
2023/12/03 07:56:42;;;;;;;455.02;54.22;;;;;;;;;;4987674;28;20050;-79
2023/12/03 07:59:09;;;;;;;401.50;49.53;;;;;;;;;;4977466;28;20133;-80
2023/12/03 08:01:35;;;;;;;308.50;48.20;;;;;;;;;;4974295;28;20100;-82
2023/12/03 08:04:03;;;;;;;311.88;42.72;;;;;;;;;;4976358;28;20490;-81
2023/12/03 08:06:30;;;;;;;383.95;47.92;;;;;;;;;;4989316;28;20379;-81
2023/12/03 08:08:57;;;;;;;326.48;43.80;;;;;;;;;;4985128;28;20121;-81
2023/12/03 08:11:23;;;;;;;355.92;49.95;;;;;;;;;;4975973;28;20430;-80
2023/12/03 08:13:49;;;;;;;270.65;42.35;;;;;;;;;;4971057;28;20034;-80
2023/12/03 08:16:16;;;;;;;301.05;42.00;;;;;;;;;;4970784;28;20495;-79
2023/12/03 08:18:42;;;;;;;268.67;37.97;;;;;;;;;;4956227;28;20042;-80
2023/12/03 08:21:11;;;;;;;190.57;27.90;;;;;;;;;;4971811;28;20495;-79
2023/12/03 08:23:37;;;;;;;224.02;31.52;;;;;;;;;;4973159;28;20042;-80
2023/12/03 08:26:04;;;;;;;213.77;31.13;;;;;;;;;;4988544;28;20050;-80
2023/12/03 08:28:30;;;;;;;196.77;26.90;;;;;;;;;;4985942;28;20125;-80
2023/12/03 08:30:56;;;;;;;246.00;31.13;;;;;;;;;;4986215;28;20041;-80
2023/12/03 08:33:22;;;;;;;223.48;30.30;;;;;;;;;;4972835;28;20514;-81
2023/12/03 08:35:48;;;;;;;262.45;27.88;;;;;;;;;;4972547;28;20088;-80
2023/12/03 08:38:15;;;;;;;266.60;31.85;;;;;;;;;;4970666;28;20053;-81
2023/12/03 08:40:41;;;;;;;269.75;27.75;;;;;;;;;;4970590;28;20054;-80
2023/12/03 08:43:07;;;;;;;281.65;32.67;;;;;;;;;;4970186;28;20066;-80
2023/12/03 08:45:34;;;;;;;246.07;27.40;;;;;;;;;;4985663;28;20038;-80
2023/12/03 08:48:03;;;;;;;275.90;27.25;;;;;;;;;;4985490;28;20034;-79
2023/12/03 08:50:31;;;;;;;262.88;30.38;;;;;;;;;;4968702;28;20498;-80
2023/12/03 08:52:58;;;;;;;269.90;29.30;;;;;;;;;;4985083;28;20046;-80
2023/12/03 08:55:24;;;;;;;266.40;27.58;;;;;;;;;;4970550;28;20445;-80
2023/12/03 08:57:50;;;;;;;300.48;30.80;;;;;;;;;;4989412;28;20038;-79
2023/12/03 09:00:17;;;;;;;234.10;26.23;;;;;;;;;;4969836;28;20141;-79
2023/12/03 09:02:44;;;;;;;215.25;26.95;;;;;;;;;;4988159;28;20043;-81
2023/12/03 09:05:11;;;;;;;240.73;26.80;;;;;;;;;;4996185;28;20050;-80
2023/12/03 09:07:37;;;;;;;164.15;24.10;;;;;;;;;;5002753;28;20045;-82
2023/12/03 09:10:03;;;;;;;156.60;22.63;;;;;;;;;;4971280;28;20490;-82
2023/12/03 09:12:29;;;;;;;135.18;20.92;;;;;;;;;;5002345;28;20050;-79
2023/12/03 09:14:56;;;;;;;120.07;24.25;;;;;;;;;;4953502;28;20121;-79
2023/12/03 09:17:22;;;;;;;129.75;23.33;;;;;;;;;;4973114;28;20384;-79
2023/12/03 09:19:49;;;;;;;101.32;20.80;;;;;;;;;;4970834;28;20077;-79
2023/12/03 09:22:15;;;;;;;126.38;23.98;;;;;;;;;;4955960;28;20058;-79
2023/12/03 09:24:41;;;;;;;115.13;22.55;;;;;;;;;;4989225;28;20114;-79
2023/12/03 09:27:10;;;;;;;101.45;19.38;;;;;;;;;;4968351;28;20046;-80
2023/12/03 09:29:36;;;;;;;121.53;22.15;;;;;;;;;;4955044;28;20058;-79
2023/12/03 09:32:04;;;;;;;118.03;22.50;;;;;;;;;;4969603;28;20496;-79
2023/12/03 09:34:30;;;;;;;114.07;21.70;;;;;;;;;;4999556;28;20050;-79
2023/12/03 09:36:57;;;;;;;109.20;20.38;;;;;;;;;;4973008;28;20401;-79
2023/12/03 09:39:23;;;;;;;104.40;20.00;;;;;;;;;;4972068;28;20089;-79
2023/12/03 09:41:50;;;;;;;105.80;24.80;;;;;;;;;;4984160;28;20367;-80
2023/12/03 09:44:25;;;;;;;112.18;22.45;;;;;;;;;;4971442;28;20038;-80
2023/12/03 09:46:53;;;;;;;118.15;23.25;;;;;;;;;;4969191;28;20073;-80
2023/12/03 09:49:23;;;;;;;98.65;22.27;;;;;;;;;;4967454;28;20441;-79
2023/12/03 09:51:50;;;;;;;105.25;22.23;;;;;;;;;;4986685;28;20049;-80
2023/12/03 09:54:16;;;;;;;81.72;19.25;;;;;;;;;;4985815;28;20069;-80
2023/12/03 09:56:43;;;;;;;111.18;22.10;;;;;;;;;;4988409;28;20545;-80
2023/12/03 09:59:13;;;;;;;92.25;18.73;;;;;;;;;;4984162;28;20046;-80
2023/12/03 10:01:39;;;;;;;115.30;22.30;;;;;;;;;;4980755;28;20038;-81
2023/12/03 10:04:08;;;;;;;100.47;22.05;;;;;;;;;;4984124;28;20171;-82
2023/12/03 10:06:35;;;;;;;123.05;26.60;;;;;;;;;;4970544;28;20034;-82
2023/12/03 10:09:03;;;;;;;114.30;25.50;;;;;;;;;;5000800;28;20053;-81
2023/12/03 10:11:32;;;;;;;118.50;23.77;;;;;;;;;;5002870;28;20042;-81
2023/12/03 10:14:01;;;;;;;100.05;24.00;;;;;;;;;;4986637;28;20096;-83
2023/12/03 10:16:27;;;;;;;102.47;25.35;;;;;;;;;;4983700;28;20486;-83
2023/12/03 10:18:53;;;;;;;109.60;24.90;;;;;;;;;;4968794;28;20040;-83
2023/12/03 10:21:20;;;;;;;104.25;23.88;;;;;;;;;;4980378;28;20138;-82
2023/12/03 10:23:56;;;;;;;105.00;24.77;;;;;;;;;;4972326;28;20050;-78
2023/12/03 10:26:22;;;;;;;93.68;24.13;;;;;;;;;;4983993;28;20078;-79
2023/12/03 10:28:48;;;;;;;112.13;25.88;;;;;;;;;;4956410;28;20034;-79
2023/12/03 10:31:18;;;;;;;101.63;22.65;;;;;;;;;;4969923;28;20053;-80
2023/12/03 10:33:44;;;;;;;107.63;26.52;;;;;;;;;;4981231;28;20050;-78
2023/12/03 10:36:11;;;;;;;92.95;20.58;;;;;;;;;;4998992;28;20065;-81
2023/12/03 10:38:37;;;;;;;108.63;27.35;;;;;;;;;;4976589;28;20057;-80
2023/12/03 10:41:06;;;;;;;87.85;24.17;;;;;;;;;;4977524;28;20097;-80
2023/12/03 10:43:34;;;;;;;97.00;26.65;;;;;;;;;;4959437;28;20782;-79
2023/12/03 10:46:00;;;;;;;95.38;24.33;;;;;;;;;;4984325;28;20125;-79
2023/12/03 10:48:30;;;;;;;88.85;22.65;;;;;;;;;;4969047;28;20042;-79
2023/12/03 10:51:01;;;;;;;94.50;25.23;;;;;;;;;;4981490;28;20042;-79
2023/12/03 10:53:27;;;;;;;101.97;27.65;;;;;;;;;;4984534;28;20178;-80
2023/12/03 10:55:54;;;;;;;94.95;25.02;;;;;;;;;;4997411;28;20126;-79
2023/12/03 10:58:21;;;;;;;93.65;24.55;;;;;;;;;;4967166;28;20167;-79
2023/12/03 11:00:51;;;;;;;86.68;23.02;;;;;;;;;;4986183;28;20089;-79
2023/12/03 11:03:23;;;;;;;86.68;24.35;;;;;;;;;;5002313;28;20152;-79
2023/12/03 11:05:52;;;;;;;97.13;26.45;;;;;;;;;;4984918;28;22504;-79
2023/12/03 11:08:21;;;;;;;79.70;26.75;;;;;;;;;;4971844;28;20053;-79
2023/12/03 11:10:47;;;;;;;93.07;32.13;;;;;;;;;;4984885;28;20054;-80
2023/12/03 11:13:13;;;;;;;85.00;28.48;;;;;;;;;;4971972;28;20129;-83
2023/12/03 11:15:40;;;;;;;79.28;27.35;;;;;;;;;;4987108;28;20073;-82
2023/12/03 11:18:07;;;;;;;81.28;29.27;;;;;;;;;;4996236;28;20581;-82
2023/12/03 11:20:36;;;;;;;57.65;23.05;;;;;;;;;;4995836;28;20147;-82
2023/12/03 11:23:13;;;;;;;43.20;20.67;;;;;;;;;;5003858;28;20509;-82
2023/12/03 11:25:45;;;;;;;37.65;19.27;;;;;;;;;;5009520;28;20072;-81
2023/12/03 11:28:11;;;;;;;36.78;18.85;;;;;;;;;;5005209;28;20044;-82
2023/12/03 11:30:39;;;;;;;39.80;20.73;;;;;;;;;;4970560;28;20073;-82
2023/12/03 11:33:12;;;;;;;35.92;18.83;;;;;;;;;;4968406;28;20563;-81
2023/12/03 11:35:42;;;;;;;37.25;19.95;;;;;;;;;;4985413;28;20522;-82
2023/12/03 11:38:21;;;;;;;34.60;18.35;;;;;;;;;;5001326;28;20152;-83
2023/12/03 11:40:47;;;;;;;35.92;19.95;;;;;;;;;;4987080;28;20062;-81
2023/12/03 11:43:24;;;;;;;36.25;19.20;;;;;;;;;;4985325;28;20122;-81
2023/12/03 11:45:51;;;;;;;36.10;19.02;;;;;;;;;;4994278;28;20133;-81
2023/12/03 11:48:17;;;;;;;36.63;19.05;;;;;;;;;;4954088;28;20042;-81
2023/12/03 11:50:45;;;;;;;38.95;21.25;;;;;;;;;;5000443;28;20061;-82
2023/12/03 11:53:13;;;;;;;42.85;21.13;;;;;;;;;;4969931;28;20039;-81
2023/12/03 11:55:41;;;;;;;41.83;22.05;;;;;;;;;;4984753;28;20402;-82
2023/12/03 11:58:07;;;;;;;38.95;21.33;;;;;;;;;;4968159;28;20039;-82
2023/12/03 12:00:34;;;;;;;37.33;20.33;;;;;;;;;;4973567;28;20520;-81
2023/12/03 12:03:01;;;;;;;44.75;22.02;;;;;;;;;;4971452;28;20065;-81
2023/12/03 12:05:28;;;;;;;40.00;21.35;;;;;;;;;;4971875;28;20042;-81
2023/12/03 12:08:04;;;;;;;36.67;20.85;;;;;;;;;;4974046;28;20053;-82
2023/12/03 12:10:33;;;;;;;42.03;22.95;;;;;;;;;;4986767;28;20100;-80
2023/12/03 12:13:00;;;;;;;40.50;20.98;;;;;;;;;;4971867;28;20042;-82
2023/12/03 12:15:26;;;;;;;42.10;22.90;;;;;;;;;;5001664;28;20088;-81
2023/12/03 12:17:53;;;;;;;35.70;20.70;;;;;;;;;;4968134;28;20050;-82
2023/12/03 12:20:26;;;;;;;38.08;21.95;;;;;;;;;;4982080;28;20046;-82
2023/12/03 12:22:52;;;;;;;43.13;23.73;;;;;;;;;;4971099;28;20040;-81
2023/12/03 12:25:20;;;;;;;36.78;21.65;;;;;;;;;;4989231;28;20039;-82
2023/12/03 12:27:46;;;;;;;40.72;22.65;;;;;;;;;;4987027;28;20050;-82
2023/12/03 12:30:14;;;;;;;38.08;21.08;;;;;;;;;;4990509;28;20050;-82
2023/12/03 12:32:40;;;;;;;42.38;24.38;;;;;;;;;;4973038;28;20065;-84
2023/12/03 12:35:07;;;;;;;41.40;22.08;;;;;;;;;;5006353;28;20034;-82
2023/12/03 12:37:34;;;;;;;40.63;24.58;;;;;;;;;;4970994;28;20046;-83
2023/12/03 12:40:09;;;;;;;41.58;23.65;;;;;;;;;;5002924;28;20576;-83
2023/12/03 12:42:40;;;;;;;39.58;21.60;;;;;;;;;;4989488;28;20042;-81
2023/12/03 12:45:07;;;;;;;42.95;26.73;;;;;;;;;;5001882;28;20564;-81
2023/12/03 12:47:34;;;;;;;39.08;25.25;;;;;;;;;;4973251;28;20520;-81
2023/12/03 12:50:01;;;;;;;41.67;24.27;;;;;;;;;;4987743;28;20050;-81
2023/12/03 12:52:27;;;;;;;38.00;22.30;;;;;;;;;;4987151;28;20493;-81
2023/12/03 12:54:54;;;;;;;43.08;24.77;;;;;;;;;;4959402;28;20053;-81
2023/12/03 12:57:20;;;;;;;39.30;25.38;;;;;;;;;;4985408;28;20034;-81
2023/12/03 12:59:46;;;;;;;38.03;24.90;;;;;;;;;;4969241;28;20046;-81
2023/12/03 13:02:22;;;;;;;36.13;22.60;;;;;;;;;;5001747;28;20050;-81
2023/12/03 13:04:48;;;;;;;38.50;23.45;;;;;;;;;;4982489;28;20105;-78
2023/12/03 13:07:15;;;;;;;37.35;22.75;;;;;;;;;;5001043;28;20046;-79
2023/12/03 13:09:41;;;;;;;36.65;25.77;;;;;;;;;;4981675;28;20490;-80
2023/12/03 13:12:08;;;;;;;32.70;20.60;;;;;;;;;;4986545;28;20109;-79
2023/12/03 13:14:35;;;;;;;36.28;21.42;;;;;;;;;;4985770;28;20041;-80
2023/12/03 13:17:02;;;;;;;35.13;21.13;;;;;;;;;;4984684;28;20046;-80
2023/12/03 13:19:28;;;;;;;35.78;22.10;;;;;;;;;;4986560;28;20043;-81
2023/12/03 13:21:55;;;;;;;36.45;22.48;;;;;;;;;;5000423;28;20038;-81
2023/12/03 13:24:21;;;;;;;34.45;22.08;;;;;;;;;;4995962;28;20050;-81
2023/12/03 13:26:47;;;;;;;27.13;18.50;;;;;;;;;;4981050;28;20730;-80
2023/12/03 13:29:22;;;;;;;35.47;21.17;;;;;;;;;;4978872;28;20053;-80
2023/12/03 13:31:48;;;;;;;38.13;24.58;;;;;;;;;;4958906;28;20057;-80
2023/12/03 13:34:14;;;;;;;33.53;21.63;;;;;;;;;;4975208;28;20041;-80
2023/12/03 13:36:41;;;;;;;34.85;22.00;;;;;;;;;;4979998;28;20042;-80
2023/12/03 13:39:07;;;;;;;36.50;20.83;;;;;;;;;;4996238;28;20145;-80
2023/12/03 13:41:34;;;;;;;32.65;21.10;;;;;;;;;;4958069;28;20057;-80
2023/12/03 13:44:00;;;;;;;37.00;20.75;;;;;;;;;;4967347;28;20035;-81
2023/12/03 13:46:27;;;;;;;35.08;21.80;;;;;;;;;;4968259;28;20042;-80
2023/12/03 13:48:53;;;;;;;33.58;19.83;;;;;;;;;;4941115;28;20043;-80
2023/12/03 13:51:20;;;;;;;35.63;19.58;;;;;;;;;;4964075;28;20049;-80
2023/12/03 13:53:48;;;;;;;34.20;20.35;;;;;;;;;;4965395;28;20478;-82
2023/12/03 13:56:14;;;;;;;32.47;19.17;;;;;;;;;;4980511;28;20052;-82
2023/12/03 13:58:40;;;;;;;36.28;20.85;;;;;;;;;;4966989;28;20057;-83
2023/12/03 14:01:06;;;;;;;37.13;21.88;;;;;;;;;;4969172;28;20157;-82
2023/12/03 14:03:32;;;;;;;39.67;23.58;;;;;;;;;;4953698;28;20129;-82
2023/12/03 14:05:59;;;;;;;40.38;23.05;;;;;;;;;;4985798;28;20070;-82
2023/12/03 14:08:25;;;;;;;37.30;21.60;;;;;;;;;;4983790;28;20096;-82
2023/12/03 14:10:51;;;;;;;41.35;23.42;;;;;;;;;;4971331;28;20042;-83